KPSF

Pittsfield Municipal Airport

Pittsfield, Massachusetts, USA
METAR KPSF 190854Z AUTO 00000KT 1/4SM FG VV001 18/17 A2988 RMK AO2 SLP090 T01780167 53013
Observed Flight Rules
Sep-19 @ 08:54 UTC (11 minutes ago) Instrument Flight Rules
Visibility Clouds Conditions
1/4 miles
  • Vertical visibility at 100' AGL
  • Fog
Temperatures Readings
Current 18°C / 64°F
Dewpoint 17°C / 63°F
Humidity 94%
Altimeter 29.88" Hg
Pressure 1009 hPa
Elevation 355
METAR KPSF 190854Z AUTO 00000KT 1/4SM FG VV001 18/17 A2988 RMK AO2 SLP090 T01780167 53013
Observed Flight Rules
Sep-19 @ 08:54 UTC
(11 minutes ago)
LIFR
Clouds
  • Vertical visibility at 100' AGL
Conditions
  • Fog
Temperature Dewpoint
18°C / 64°F 17°C / 63°F
Humidity Altimeter Pressure
94% 29.88" Hg 1009 hPa